Terminal Aerodrome Forecast
Issued by NWS Quad Cities IA IL

Home | Current Version | Previous Version | Text Only | Print | Product List | Glossary On
Versions: 1 2 3 4 5 6 7 8 9 10 11 12 13 14 15 16 17 18 19 20
000
FTUS43 KDVN 270520
TAFDBQ
TAF
KDBQ 270520Z 2706/2806 VRB03KT 6SM BR SCT150
     FM270800 VRB02KT 2SM BR FEW003
      TEMPO 2709/2713 1SM BR BKN003
     FM271400 16006KT 6SM BR SCT040
     FM272200 VRB05KT P6SM VCTS BKN050CB
     FM280100 01010KT 6SM BR BKN030=

USA.gov is the U.S. government's official web portal to all federal, state and local government web resources and services.